Main page
METAR-TAF:

METAR-TAF

Airports :

Aurillac – Tronquières Airport

Aurillac, France

latitude: 44-53N, longitude: 002-25E, elevation: 639 m

Current weather observation

The report was made 35 minutes ago, at 23:30 UTC
Wind 3 kt from the East
Temperature -2°C
Humidity 100%
Pressure 1008 hPa
Visibility 10 km or more

METAR: LFLW 172330Z AUTO 09003KT 9999 ////// M02/M02 Q1008

Time: 01:05 (00:05 UTC)

Forecast

The report was made 10 hours and 5 minutes ago, at 14:00 UTC
Forecast valid from 17 at 15 UTC to 17 at 24 UTC
Wind 3 kt from variable directions
Visibility 10 km or more
Broken clouds at a height of 2000 ft
Becoming
from 17 at 17 UTC to 17 at 19 UTC
Visibility 10 km or more
no clouds below 1500 m and no cumulonimbus

TAF: LFLW 171400Z 1715/1724 VRB03KT 9999 BKN020 BECMG 1717/1719 CAVOK

Weather observations and forecasts of more than 4000 airports (METAR and TAF reports).

The available stations are represented by yellow and red dots on the map.

Hover mouse over dot to see the name of the station.

Then click to see weather observations and forecasts.

To change the map : click on the green buttons with a black cross to zoom in, on the green button with a dash to zoom out, or on the green arrows for adjacent maps.


METAR-TAF: